SPJL/JUL METAR and TAF weather

Enter ICAO airport designator
Station Type Date Time Source
SPJL METAR 2021/09/28 17:00 UTC NOAA

SPJL 281700Z 13010KT CAVOK 17/M06 Q1036 RMK PP000


Station Type Date Time Source
SPJL Decoded METAR 2021/09/28 17:00 UTC NOAA

Juliaca, Peru (SPJL) 15-29S 070-09W 3827M
Sep 28, 2021 - 01:00 PM EDT / 2021.09.28 1700 UTC
Wind: from the SE (130 degrees) at 12 MPH (10 KT):0
Visibility: greater than 7 mile(s):0
Temperature: 62 F (17 C)
Dew Point: 21 F (-6 C)
Relative Humidity: 20%
Pressure (altimeter): 30.59 in. Hg (1036 hPa)
ob: SPJL 281700Z 13010KT CAVOK 17/M06 Q1036 RMK PP000
cycle: 17

Station Type Date Time Source
SPJL TAF 2021/09/28 18:33 UTC NOAA

TAF SPJL 281700Z 2818/2918 10011KT CAVOK TX18/2819Z TN02/2910Z
BECMG 2900/2902 25003KT

Example: see airport list